createdAt,value
2018-07-22T00:00:25.565Z,57.85
2018-07-22T00:03:31.230Z,58.47
2018-07-22T00:06:36.762Z,58.52
2018-07-22T00:09:43.533Z,58.22
2018-07-22T00:12:50.345Z,58.03
2018-07-22T00:15:56.054Z,57.98
2018-07-22T00:19:00.945Z,57.29
2018-07-22T00:22:05.827Z,57.18
2018-07-22T00:25:11.407Z,58.05
2018-07-22T00:28:17.626Z,57.32
2018-07-22T00:31:23.638Z,58.29
2018-07-22T00:34:29.442Z,58.01
2018-07-22T00:37:34.374Z,57.40
2018-07-22T00:40:40.247Z,57.39
2018-07-22T00:43:45.306Z,57.76
2018-07-22T00:46:50.577Z,57.69
2018-07-22T00:49:56.429Z,57.86
2018-07-22T00:53:01.335Z,58.22
2018-07-22T00:56:06.580Z,57.69
2018-07-22T00:59:11.466Z,57.90
2018-07-22T01:02:16.372Z,58.39
2018-07-22T01:05:21.697Z,58.45
2018-07-22T01:08:26.626Z,57.98
2018-07-22T01:11:32.448Z,58.86
2018-07-22T01:14:37.870Z,58.04
2018-07-22T01:17:42.751Z,58.29
2018-07-22T01:20:48.791Z,58.18
2018-07-22T01:23:53.696Z,58.57
2018-07-22T01:26:59.506Z,58.54
2018-07-22T01:30:06.484Z,58.31
2018-07-22T01:33:12.110Z,58.77
2018-07-22T01:36:17.955Z,58.91
2018-07-22T01:39:22.829Z,58.47
2018-07-22T01:42:27.750Z,58.69
2018-07-22T01:45:33.534Z,58.19
2018-07-22T01:48:38.968Z,58.98
2018-07-22T01:51:43.872Z,59.63
2018-07-22T01:54:49.692Z,59.03
2018-07-22T01:57:54.561Z,59.66
2018-07-22T02:01:00.193Z,59.54
2018-07-22T02:04:05.543Z,59.88
2018-07-22T02:07:11.355Z,58.77
2018-07-22T02:10:16.270Z,59.36
2018-07-22T02:13:21.186Z,58.85
2018-07-22T02:16:26.975Z,59.60
2018-07-22T02:19:32.737Z,59.28
2018-07-22T02:22:38.550Z,59.73
2018-07-22T02:25:45.696Z,59.51
2018-07-22T02:28:50.858Z,60.17
2018-07-22T02:31:56.667Z,59.55
2018-07-22T02:35:02.567Z,60.13
2018-07-22T02:38:08.132Z,60.35
2018-07-22T02:41:14.063Z,60.17
2018-07-22T02:44:19.886Z,59.40
2018-07-22T02:47:24.783Z,59.41
2018-07-22T02:50:30.630Z,59.37
2018-07-22T02:53:35.512Z,59.27
2018-07-22T02:56:41.138Z,59.38
2018-07-22T02:59:46.032Z,59.93
2018-07-22T03:02:51.859Z,60.18
2018-07-22T03:05:57.156Z,59.89
2018-07-22T03:09:02.168Z,59.19
2018-07-22T03:12:07.428Z,59.10
2018-07-22T03:15:12.349Z,59.44
2018-07-22T03:18:17.572Z,59.17
2018-07-22T03:21:22.465Z,59.96
2018-07-22T03:24:27.380Z,59.23
2018-07-22T03:27:34.193Z,60.08
2018-07-22T03:30:39.690Z,59.39
2018-07-22T03:33:44.567Z,59.43
2018-07-22T03:36:51.735Z,59.50
2018-07-22T03:39:56.619Z,60.15
2018-07-22T03:43:01.513Z,59.86
2018-07-22T03:46:07.344Z,58.97
2018-07-22T03:49:12.763Z,59.69
2018-07-22T03:52:18.914Z,58.88
2018-07-22T03:55:23.795Z,59.00
2018-07-22T03:58:29.628Z,59.19
2018-07-22T04:01:35.971Z,58.92
2018-07-22T04:04:40.897Z,58.84
2018-07-22T04:07:45.787Z,59.39
2018-07-22T04:10:51.426Z,59.63
2018-07-22T04:13:56.323Z,59.47
2018-07-22T04:17:02.261Z,59.01
2018-07-22T04:20:07.490Z,58.81
2018-07-22T04:23:13.635Z,58.97
2018-07-22T04:26:19.420Z,60.01
2018-07-22T04:29:24.945Z,60.04
2018-07-22T04:32:30.745Z,60.40
2018-07-22T04:35:35.611Z,59.37
2018-07-22T04:38:40.535Z,59.19
2018-07-22T04:41:45.445Z,59.60
2018-07-22T04:44:51.319Z,58.85
2018-07-22T04:47:56.824Z,59.82
2018-07-22T04:51:02.715Z,59.69
2018-07-22T04:54:09.171Z,59.09
2018-07-22T04:57:16.167Z,59.72
2018-07-22T05:00:21.776Z,59.99
2018-07-22T05:03:27.912Z,59.87
2018-07-22T05:06:33.764Z,59.43
2018-07-22T05:09:38.682Z,60.09
2018-07-22T05:12:43.879Z,59.05
2018-07-22T05:15:51.062Z,59.75
2018-07-22T05:18:56.729Z,59.01
2018-07-22T05:22:01.616Z,58.92
2018-07-22T05:25:08.457Z,59.53
2018-07-22T05:28:14.032Z,59.54
2018-07-22T05:31:21.260Z,58.99
2018-07-22T05:34:27.016Z,60.06
2018-07-22T05:37:32.043Z,59.57
2018-07-22T05:40:37.971Z,59.40
2018-07-22T05:43:43.923Z,59.93
2018-07-22T05:46:49.475Z,59.69
2018-07-22T05:49:54.389Z,60.24
2018-07-22T05:52:59.477Z,60.51
2018-07-22T05:56:04.390Z,59.61
2018-07-22T05:59:10.215Z,59.83
2018-07-22T06:02:16.021Z,60.77
2018-07-22T06:05:21.441Z,60.74
2018-07-22T06:08:26.823Z,60.95
2018-07-22T06:11:31.733Z,60.11
2018-07-22T06:14:37.348Z,60.78
2018-07-22T06:17:42.277Z,60.83
2018-07-22T06:20:48.216Z,60.81
2018-07-22T06:23:53.768Z,61.06
2018-07-22T06:26:58.704Z,60.50
2018-07-22T06:30:03.848Z,61.16
2018-07-22T06:33:09.707Z,60.24
2018-07-22T06:36:15.271Z,61.00
2018-07-22T06:39:21.093Z,60.38
2018-07-22T06:42:25.979Z,60.54
2018-07-22T06:45:32.882Z,61.04
2018-07-22T06:48:37.912Z,60.45
2018-07-22T06:51:42.819Z,61.00
2018-07-22T06:54:47.991Z,61.30
2018-07-22T06:57:53.840Z,61.03
2018-07-22T07:01:00.160Z,61.56
2018-07-22T07:04:05.626Z,61.32
2018-07-22T07:07:12.757Z,60.80
2018-07-22T07:10:18.720Z,60.64
2018-07-22T07:13:23.628Z,60.89
2018-07-22T07:16:30.491Z,60.75
2018-07-22T07:19:35.393Z,60.90
2018-07-22T07:22:41.221Z,60.91
2018-07-22T07:25:47.032Z,61.39
2018-07-22T07:28:52.853Z,60.81
2018-07-22T07:31:58.854Z,61.92
2018-07-22T07:35:03.806Z,61.56
2018-07-22T07:38:09.067Z,61.18
2018-07-22T07:41:14.008Z,61.82
2018-07-22T07:44:20.086Z,61.21
2018-07-22T07:47:25.900Z,61.86
2018-07-22T07:50:31.308Z,62.42
2018-07-22T07:53:37.143Z,61.09
2018-07-22T07:56:43.047Z,61.36
2018-07-22T07:59:47.934Z,61.95
2018-07-22T08:02:53.868Z,61.42
2018-07-22T08:05:59.751Z,62.17
2018-07-22T08:09:07.128Z,61.88
2018-07-22T08:12:12.670Z,60.94
2018-07-22T08:15:18.337Z,61.74
2018-07-22T08:18:24.456Z,61.51
2018-07-22T08:21:29.345Z,61.95
2018-07-22T08:24:35.291Z,61.14
2018-07-22T08:27:40.184Z,61.36
2018-07-22T08:30:46.093Z,61.21
2018-07-22T08:33:50.976Z,60.38
2018-07-22T08:36:56.647Z,60.30
2018-07-22T08:40:02.831Z,60.97
2018-07-22T08:43:09.587Z,60.17
2018-07-22T08:46:15.174Z,60.29
2018-07-22T08:49:20.978Z,60.58
2018-07-22T08:52:26.814Z,60.24
2018-07-22T08:55:32.522Z,60.07
2018-07-22T08:58:39.237Z,60.85
2018-07-22T09:01:44.152Z,60.73
2018-07-22T09:04:50.155Z,59.77
2018-07-22T09:07:56.703Z,60.46
2018-07-22T09:11:01.980Z,60.09
2018-07-22T09:14:08.372Z,60.14
2018-07-22T09:17:13.251Z,60.70
2018-07-22T09:20:18.147Z,60.23
2018-07-22T09:23:23.015Z,60.06
2018-07-22T09:26:28.423Z,60.00
2018-07-22T09:29:33.307Z,59.63
2018-07-22T09:32:38.627Z,59.07
2018-07-22T09:35:44.297Z,59.16
2018-07-22T09:38:49.649Z,59.07
2018-07-22T09:41:55.148Z,58.00
2018-07-22T09:45:01.463Z,58.37
2018-07-22T09:48:06.374Z,58.16
2018-07-22T09:51:12.643Z,57.27
2018-07-22T09:54:17.889Z,57.15
2018-07-22T09:57:22.803Z,57.49
2018-07-22T10:00:33.374Z,55.88
2018-07-22T10:03:38.783Z,56.01
2018-07-22T10:06:45.239Z,55.01
2018-07-22T10:09:51.216Z,54.91
2018-07-22T10:12:57.062Z,54.14
2018-07-22T10:16:01.936Z,54.76
2018-07-22T10:19:06.840Z,53.22
2018-07-22T10:22:11.991Z,53.34
2018-07-22T10:25:17.363Z,54.12
2018-07-22T10:28:22.291Z,53.07
2018-07-22T10:31:27.188Z,54.60
2018-07-22T10:34:32.485Z,53.58
2018-07-22T10:37:38.347Z,53.82
2018-07-22T10:40:43.986Z,54.54
2018-07-22T10:43:49.994Z,54.88
2018-07-22T10:46:55.228Z,53.62
2018-07-22T10:50:00.468Z,54.25
2018-07-22T10:53:06.216Z,53.41
2018-07-22T10:56:12.072Z,53.78
2018-07-22T10:59:17.321Z,53.47
2018-07-22T11:02:22.980Z,52.78
2018-07-22T11:05:28.811Z,53.34
2018-07-22T11:08:34.654Z,53.31
2018-07-22T11:11:40.605Z,53.60
2018-07-22T11:14:46.171Z,52.80
2018-07-22T11:17:52.437Z,52.76
2018-07-22T11:20:58.742Z,52.30
2018-07-22T11:24:04.824Z,52.71
2018-07-22T11:27:09.716Z,52.68
2018-07-22T11:30:15.653Z,53.29
2018-07-22T11:33:20.519Z,51.53
2018-07-22T11:36:27.497Z,51.96
2018-07-22T11:39:33.202Z,51.92
2018-07-22T11:42:39.599Z,51.97
2018-07-22T11:45:46.319Z,51.60
2018-07-22T11:48:51.573Z,52.74
2018-07-22T11:51:57.784Z,51.51
2018-07-22T11:55:02.657Z,52.15
2018-07-22T11:58:07.689Z,50.86
2018-07-22T12:01:13.525Z,50.85
2018-07-22T12:04:18.391Z,50.85
2018-07-22T12:07:24.509Z,50.36
2018-07-22T12:10:29.813Z,50.08
2018-07-22T12:13:34.700Z,50.53
2018-07-22T12:16:40.492Z,51.09
2018-07-22T12:19:45.403Z,50.18
2018-07-22T12:22:50.787Z,51.44
2018-07-22T12:25:56.688Z,51.57
2018-07-22T12:29:02.578Z,50.55
2018-07-22T12:32:08.528Z,50.20
2018-07-22T12:35:14.137Z,49.39
2018-07-22T12:38:20.155Z,50.30
2018-07-22T12:41:26.076Z,49.89
2018-07-22T12:44:30.976Z,49.21
2018-07-22T12:47:36.587Z,49.16
2018-07-22T12:50:41.911Z,49.17
2018-07-22T12:53:47.688Z,48.95
2018-07-22T12:56:53.733Z,47.82
2018-07-22T12:59:58.599Z,48.36
2018-07-22T13:03:04.258Z,47.82
2018-07-22T13:06:10.556Z,49.04
2018-07-22T13:09:16.329Z,48.48
2018-07-22T13:12:21.299Z,49.06
2018-07-22T13:15:27.560Z,47.34
2018-07-22T13:18:34.308Z,47.69
2018-07-22T13:21:39.186Z,47.34
2018-07-22T13:24:44.985Z,47.01
2018-07-22T13:27:50.798Z,46.90
2018-07-22T13:30:56.674Z,46.70
2018-07-22T13:34:01.643Z,47.28
2018-07-22T13:37:07.134Z,47.11
2018-07-22T13:40:12.860Z,47.39
2018-07-22T13:43:17.739Z,46.63
2018-07-22T13:46:22.640Z,46.37
2018-07-22T13:49:28.448Z,45.95
2018-07-22T13:52:33.569Z,46.82
2018-07-22T13:55:38.460Z,46.71
2018-07-22T13:58:44.439Z,46.38
2018-07-22T14:01:50.221Z,46.23
2018-07-22T14:04:55.095Z,45.30
2018-07-22T14:08:00.880Z,45.57
2018-07-22T14:11:06.581Z,44.93
2018-07-22T14:14:12.417Z,45.28
2018-07-22T14:17:17.650Z,45.24
2018-07-22T14:20:22.547Z,44.80
2018-07-22T14:23:27.957Z,43.72
2018-07-22T14:26:33.467Z,43.45
2018-07-22T14:29:39.736Z,43.05
2018-07-22T14:32:44.617Z,43.51
2018-07-22T14:35:50.404Z,43.75
2018-07-22T14:38:55.620Z,43.05
2018-07-22T14:42:00.492Z,42.52
2018-07-22T14:45:07.792Z,43.05
2018-07-22T14:48:12.980Z,42.63
2018-07-22T14:51:19.095Z,43.03
2018-07-22T14:54:25.184Z,43.67
2018-07-22T14:57:30.583Z,42.82
2018-07-22T15:00:35.794Z,43.09
2018-07-22T15:03:41.350Z,44.84
2018-07-22T15:06:48.282Z,44.23
2018-07-22T15:09:54.088Z,45.46
2018-07-22T15:12:58.973Z,44.89
2018-07-22T15:16:04.944Z,46.31
2018-07-22T15:19:10.316Z,46.27
2018-07-22T15:22:15.495Z,45.82
2018-07-22T15:25:20.748Z,46.82
2018-07-22T15:28:26.450Z,46.16
2018-07-22T15:31:32.594Z,46.99
2018-07-22T15:34:38.149Z,46.07
2018-07-22T15:37:43.987Z,47.02
2018-07-22T15:40:50.586Z,47.36
2018-07-22T15:43:56.241Z,46.96
2018-07-22T15:47:01.432Z,47.64
2018-07-22T15:50:06.321Z,47.71
2018-07-22T15:53:13.937Z,46.76
2018-07-22T15:56:18.829Z,47.75
2018-07-22T15:59:24.657Z,47.35
2018-07-22T16:02:30.571Z,47.71
2018-07-22T16:05:36.067Z,48.49
2018-07-22T16:08:42.891Z,47.50
2018-07-22T16:11:47.756Z,47.82
2018-07-22T16:14:53.203Z,47.97
2018-07-22T16:17:58.433Z,47.50
2018-07-22T16:21:03.322Z,47.38
2018-07-22T16:24:08.208Z,47.83
2018-07-22T16:27:14.997Z,47.87
2018-07-22T16:30:21.007Z,48.02
2018-07-22T16:33:26.219Z,48.23
2018-07-22T16:36:31.125Z,48.35
2018-07-22T16:39:36.003Z,48.16
2018-07-22T16:42:41.431Z,47.37
2018-07-22T16:45:46.331Z,48.34
2018-07-22T16:48:52.106Z,48.69
2018-07-22T16:51:57.900Z,47.64
2018-07-22T16:55:02.793Z,47.97
2018-07-22T16:58:07.668Z,48.05
2018-07-22T17:01:12.617Z,49.02
2018-07-22T17:04:18.431Z,48.71
2018-07-22T17:07:24.320Z,48.44
2018-07-22T17:10:30.360Z,48.72
2018-07-22T17:13:36.273Z,48.52
2018-07-22T17:16:42.191Z,48.84
2018-07-22T17:19:47.399Z,48.59
2018-07-22T17:22:53.209Z,49.91
2018-07-22T17:25:59.184Z,49.26
2018-07-22T17:29:06.010Z,50.22
2018-07-22T17:32:11.689Z,49.60
2018-07-22T17:35:17.487Z,50.87
2018-07-22T17:38:22.888Z,50.96
2018-07-22T17:41:27.807Z,50.85
2018-07-22T17:44:34.517Z,51.21
2018-07-22T17:47:40.287Z,51.50
2018-07-22T17:50:47.096Z,51.40
2018-07-22T17:53:52.860Z,51.21
2018-07-22T17:56:59.703Z,51.45
2018-07-22T18:00:04.933Z,52.36
2018-07-22T18:03:21.268Z,52.38
2018-07-22T18:06:27.426Z,51.73
2018-07-22T18:09:32.611Z,52.58
2018-07-22T18:12:38.399Z,52.88
2018-07-22T18:15:44.832Z,52.78
2018-07-22T18:18:51.136Z,53.11
2018-07-22T18:21:57.806Z,53.02
2018-07-22T18:25:03.955Z,52.55
2018-07-22T18:28:10.814Z,52.84
2018-07-22T18:31:16.852Z,53.30
2018-07-22T18:34:22.199Z,52.87
2018-07-22T18:37:29.839Z,53.01
2018-07-22T18:40:37.359Z,53.11
2018-07-22T18:43:46.748Z,53.89
2018-07-22T18:46:53.432Z,53.42
2018-07-22T18:49:59.455Z,53.34
2018-07-22T18:53:06.244Z,53.84
2018-07-22T18:56:13.443Z,53.45
2018-07-22T18:59:19.316Z,54.38
2018-07-22T19:02:27.831Z,54.25
2018-07-22T19:05:33.040Z,53.33
2018-07-22T19:08:38.128Z,53.86
2018-07-22T19:11:43.345Z,55.00
2018-07-22T19:14:48.579Z,54.12
2018-07-22T19:17:55.960Z,54.68
2018-07-22T19:21:02.039Z,54.44
2018-07-22T19:24:08.480Z,54.68
2018-07-22T19:27:14.768Z,55.48
2018-07-22T19:30:20.684Z,55.19
2018-07-22T19:33:26.684Z,55.17
2018-07-22T19:36:33.552Z,56.25
2018-07-22T19:39:39.571Z,55.45
2018-07-22T19:42:46.165Z,56.07
2018-07-22T19:45:52.063Z,56.52
2018-07-22T19:48:58.065Z,56.17
2018-07-22T19:52:03.980Z,56.14
2018-07-22T19:55:10.046Z,56.75
2018-07-22T19:58:16.402Z,56.55
2018-07-22T20:01:23.635Z,58.14
2018-07-22T20:04:30.774Z,58.42
2018-07-22T20:07:36.337Z,57.19
2018-07-22T20:10:42.474Z,58.26
2018-07-22T20:13:48.383Z,57.56
2018-07-22T20:16:54.533Z,58.31
2018-07-22T20:20:01.479Z,58.08
2018-07-22T20:23:07.121Z,58.71
2018-07-22T20:26:14.380Z,58.91
2018-07-22T20:29:20.753Z,58.35
2018-07-22T20:32:26.909Z,58.70
2018-07-22T20:35:32.110Z,58.96
2018-07-22T20:38:37.286Z,58.54
2018-07-22T20:41:44.490Z,58.65
2018-07-22T20:44:50.607Z,58.57
2018-07-22T20:47:55.862Z,58.83
2018-07-22T20:51:01.272Z,59.07
2018-07-22T20:54:07.460Z,59.83
2018-07-22T20:57:12.666Z,60.05
2018-07-22T21:00:18.862Z,59.56
2018-07-22T21:03:24.486Z,59.47
2018-07-22T21:06:31.043Z,59.84
2018-07-22T21:09:37.131Z,59.50
2018-07-22T21:12:54.663Z,60.43
2018-07-22T21:15:59.610Z,60.84
2018-07-22T21:19:05.123Z,59.87
2018-07-22T21:22:11.335Z,60.34
2018-07-22T21:25:20.326Z,61.29
2018-07-22T21:28:37.677Z,60.94
2018-07-22T21:31:50.681Z,61.55
2018-07-22T21:35:05.447Z,61.07
2018-07-22T21:38:12.338Z,61.41
2018-07-22T21:41:18.415Z,61.98
2018-07-22T21:44:23.568Z,62.25
2018-07-22T21:47:42.288Z,61.85
2018-07-22T21:50:58.250Z,61.31
2018-07-22T21:54:05.495Z,62.38
2018-07-22T21:57:22.077Z,62.92
2018-07-22T22:00:38.389Z,62.17
2018-07-22T22:03:47.056Z,62.29
2018-07-22T22:07:02.829Z,62.80
2018-07-22T22:10:08.640Z,63.07
2018-07-22T22:13:14.335Z,62.70
2018-07-22T22:16:20.328Z,62.68
2018-07-22T22:19:26.505Z,62.84
2018-07-22T22:22:31.744Z,63.70
2018-07-22T22:25:36.884Z,63.16
2018-07-22T22:28:42.082Z,63.08
2018-07-22T22:31:49.111Z,64.03
2018-07-22T22:34:55.342Z,64.00
2018-07-22T22:38:00.851Z,63.82
2018-07-22T22:41:07.398Z,64.05
2018-07-22T22:44:13.179Z,64.20
2018-07-22T22:47:19.316Z,64.47
2018-07-22T22:50:24.458Z,64.22
2018-07-22T22:53:29.620Z,64.08
2018-07-22T22:56:34.811Z,64.14
2018-07-22T22:59:40.215Z,64.56
2018-07-22T23:02:46.442Z,64.69
2018-07-22T23:05:51.623Z,64.35
2018-07-22T23:08:57.731Z,64.67
2018-07-22T23:12:03.622Z,65.31
2018-07-22T23:15:08.804Z,65.62
2018-07-22T23:18:13.955Z,65.90
2018-07-22T23:21:19.442Z,65.79
2018-07-22T23:24:25.415Z,65.76
2018-07-22T23:27:31.547Z,65.66
2018-07-22T23:30:36.687Z,65.75
2018-07-22T23:33:41.906Z,66.62
2018-07-22T23:36:47.050Z,66.04
2018-07-22T23:39:52.551Z,65.71
2018-07-22T23:42:57.741Z,65.83
2018-07-22T23:46:02.918Z,66.02
2018-07-22T23:49:09.117Z,66.85
2018-07-22T23:52:15.935Z,66.14
2018-07-22T23:55:21.107Z,66.60
2018-07-22T23:58:27.283Z,67.39
